South Van Buren, Missouri
Current Conditions -  °F | °C
As of 3:53 AM on Monday 22 Dec 2014 (Local Time) from KPOF Reporting Station
Overcast Overcast  
Wind Chill: 39°   Ceiling: 2500
Heat Index: 43°   Visibility: 10mi
Dew Point: 37°   Wind: 6mph
Humidity: 80%   Direction: 110°ESE
Pressure: 29.83"   Gusts: NA
Location:  36.9608°N, 90.9923°W
Report Text: KPOF 220953Z AUTO 11005KT 10SM SCT019 OVC025 06/03 A2983 RMK AO2 SLP104 T00610028
Loading
Personal Weather Stations






























Interactive Weather Map New forecast layout! Learn more

10-Day Weather Forecast

Advertisements
Track Severe Weather on mobile